Time,TemperatureF,DewpointF,PressureIn,WindDirection,WindDirectionDegrees,WindSpeedMPH,WindSpeedGustMPH,Humidity,HourlyPrecipIn,Conditions,Clouds,dailyrainin,SoftwareType,DateUTC
2013-01-18 00:04:00,11.0,6.0,30.20,West,265,10.0,20.0,77,-99.99,,,-99.99,,2013-01-18 05:04:00,
2013-01-18 00:12:00,11.0,6.0,30.20,West,265,10.0,20.0,77,-99.99,,,-99.99,,2013-01-18 05:12:00,
2013-01-18 00:22:00,11.0,5.0,30.20,WNW,285,10.0,24.0,78,-99.99,,,-99.99,,2013-01-18 05:22:00,
2013-01-18 00:33:00,11.0,6.0,30.20,WSW,255,10.0,20.0,79,-99.99,,,-99.99,,2013-01-18 05:33:00,
2013-01-18 00:43:00,11.0,6.0,30.20,WSW,255,10.0,20.0,79,-99.99,,,-99.99,,2013-01-18 05:43:00,
2013-01-18 00:53:00,11.0,5.0,30.20,WSW,250,11.0,22.0,78,-99.99,,,-99.99,,2013-01-18 05:53:00,
2013-01-18 01:02:00,10.0,4.0,30.21,West,260,10.0,17.0,78,-99.99,,,-99.99,,2013-01-18 06:02:00,
2013-01-18 01:12:00,10.0,4.0,30.21,West,260,10.0,17.0,78,-99.99,,,-99.99,,2013-01-18 06:12:00,
2013-01-18 01:22:00,9.0,4.0,30.21,WNW,290,10.0,19.0,78,-99.99,,,-99.99,,2013-01-18 06:22:00,
2013-01-18 01:33:00,9.0,4.0,30.21,WNW,285,11.0,20.0,78,-99.99,,,-99.99,,2013-01-18 06:33:00,
2013-01-18 01:43:00,9.0,4.0,30.21,WNW,285,11.0,20.0,78,-99.99,,,-99.99,,2013-01-18 06:43:00,
2013-01-18 01:52:00,9.0,3.0,30.21,WNW,290,8.0,15.0,79,-99.99,,,-99.99,,2013-01-18 06:52:00,
2013-01-18 02:02:00,8.0,3.0,30.21,West,280,9.0,14.0,79,-99.99,,,-99.99,,2013-01-18 07:02:00,
2013-01-18 02:12:00,8.0,3.0,30.21,West,280,9.0,14.0,79,-99.99,,,-99.99,,2013-01-18 07:12:00,
2013-01-18 02:22:00,8.0,3.0,30.22,WNW,290,11.0,15.0,80,-99.99,,,-99.99,,2013-01-18 07:22:00,
2013-01-18 02:33:00,8.0,3.0,30.22,West,270,7.0,14.0,80,-99.99,,,-99.99,,2013-01-18 07:33:00,
2013-01-18 02:42:00,8.0,3.0,30.22,West,270,7.0,14.0,80,-99.99,,,-99.99,,2013-01-18 07:42:00,
2013-01-18 02:52:00,9.0,4.0,30.22,WNW,285,10.0,16.0,81,-99.99,,,-99.99,,2013-01-18 07:52:00,
2013-01-18 03:02:00,8.0,4.0,30.22,West,280,7.0,16.0,80,-99.99,,,-99.99,,2013-01-18 08:02:00,
2013-01-18 03:12:00,8.0,4.0,30.22,West,280,7.0,16.0,80,-99.99,,,-99.99,,2013-01-18 08:12:00,
2013-01-18 03:22:00,9.0,4.0,30.23,West,275,8.0,19.0,81,-99.99,,,-99.99,,2013-01-18 08:22:00,
2013-01-18 03:32:00,8.0,4.0,30.24,WNW,285,9.0,19.0,80,-99.99,,,-99.99,,2013-01-18 08:32:00,
2013-01-18 03:42:00,8.0,4.0,30.24,WNW,285,9.0,19.0,80,-99.99,,,-99.99,,2013-01-18 08:42:00,
2013-01-18 03:53:00,9.0,4.0,30.24,West,280,9.0,20.0,80,-99.99,,,-99.99,,2013-01-18 08:53:00,
2013-01-18 04:03:00,8.0,3.0,30.24,West,275,8.0,12.0,79,-99.99,,,-99.99,,2013-01-18 09:03:00,
2013-01-18 04:12:00,8.0,3.0,30.24,West,275,8.0,12.0,79,-99.99,,,-99.99,,2013-01-18 09:12:00,
2013-01-18 04:22:00,8.0,2.0,30.24,West,275,9.0,21.0,76,-99.99,,,-99.99,,2013-01-18 09:22:00,
2013-01-18 04:33:00,8.0,2.0,30.24,WNW,290,9.0,14.0,75,-99.99,,,-99.99,,2013-01-18 09:33:00,
2013-01-18 04:42:00,8.0,2.0,30.24,WNW,290,9.0,14.0,75,-99.99,,,-99.99,,2013-01-18 09:42:00,
2013-01-18 04:52:00,8.0,2.0,30.24,WNW,295,8.0,14.0,76,-99.99,,,-99.99,,2013-01-18 09:52:00,
2013-01-18 05:03:00,8.0,2.0,30.23,West,280,9.0,15.0,76,-99.99,,,-99.99,,2013-01-18 10:03:00,
2013-01-18 05:12:00,8.0,2.0,30.23,West,280,9.0,15.0,76,-99.99,,,-99.99,,2013-01-18 10:12:00,
2013-01-18 05:22:00,9.0,3.0,30.22,West,270,8.0,18.0,75,-99.99,,,-99.99,,2013-01-18 10:22:00,
2013-01-18 05:33:00,9.0,3.0,30.22,West,260,8.0,14.0,74,-99.99,,,-99.99,,2013-01-18 10:33:00,
2013-01-18 05:43:00,9.0,3.0,30.22,West,260,8.0,14.0,74,-99.99,,,-99.99,,2013-01-18 10:43:00,
2013-01-18 05:52:00,9.0,2.0,30.22,WNW,285,9.0,14.0,72,-99.99,,,-99.99,,2013-01-18 10:52:00,
2013-01-18 06:03:00,9.0,1.0,30.21,West,280,9.0,12.0,70,-99.99,,,-99.99,,2013-01-18 11:03:00,
2013-01-18 06:12:00,9.0,1.0,30.21,West,280,9.0,12.0,70,-99.99,,,-99.99,,2013-01-18 11:12:00,
2013-01-18 06:23:00,9.0,1.0,30.22,WNW,285,8.0,14.0,70,-99.99,,,-99.99,,2013-01-18 11:23:00,
2013-01-18 06:33:00,9.0,1.0,30.22,WNW,290,8.0,14.0,68,-99.99,,,-99.99,,2013-01-18 11:33:00,
2013-01-18 06:42:00,9.0,1.0,30.22,WNW,290,8.0,14.0,68,-99.99,,,-99.99,,2013-01-18 11:42:00,
2013-01-18 06:52:00,10.0,2.0,30.22,West,265,7.0,11.0,69,-99.99,,,-99.99,,2013-01-18 11:52:00,
2013-01-18 07:03:00,11.0,4.0,30.22,West,270,8.0,16.0,71,-99.99,,,-99.99,,2013-01-18 12:03:00,
2013-01-18 07:12:00,11.0,4.0,30.22,West,270,8.0,16.0,71,-99.99,,,-99.99,,2013-01-18 12:12:00,
2013-01-18 07:23:00,12.0,4.0,30.22,West,275,8.0,16.0,70,-99.99,,,-99.99,,2013-01-18 12:23:00,
2013-01-18 07:33:00,10.0,3.0,30.21,WNW,300,5.0,13.0,71,-99.99,,,-99.99,,2013-01-18 12:33:00,
2013-01-18 07:43:00,10.0,3.0,30.21,WNW,300,5.0,13.0,71,-99.99,,,-99.99,,2013-01-18 12:43:00,
2013-01-18 07:52:00,9.0,2.0,30.21,NW,305,6.0,11.0,72,-99.99,,,-99.99,,2013-01-18 12:52:00,
2013-01-18 08:03:00,8.0,2.0,30.20,WNW,290,5.0,9.0,74,-99.99,,,-99.99,,2013-01-18 13:03:00,
2013-01-18 08:12:00,8.0,2.0,30.20,WNW,290,5.0,9.0,74,-99.99,,,-99.99,,2013-01-18 13:12:00,
2013-01-18 08:23:00,9.0,2.0,30.20,WNW,295,9.0,13.0,72,-99.99,,,-99.99,,2013-01-18 13:23:00,
2013-01-18 08:33:00,9.0,2.0,30.20,WNW,290,8.0,12.0,72,-99.99,,,-99.99,,2013-01-18 13:33:00,
2013-01-18 08:43:00,9.0,2.0,30.20,WNW,290,8.0,12.0,72,-99.99,,,-99.99,,2013-01-18 13:43:00,
2013-01-18 08:53:00,9.0,2.0,30.20,West,280,7.0,11.0,72,-99.99,,,-99.99,,2013-01-18 13:53:00,
2013-01-18 09:03:00,9.0,2.0,30.20,West,280,7.0,11.0,72,-99.99,,,-99.99,,2013-01-18 14:03:00,
2013-01-18 09:23:00,9.0,2.0,30.18,NNW,330,6.0,8.0,72,-99.99,,,-99.99,,2013-01-18 14:23:00,
2013-01-18 09:34:00,9.0,2.0,30.17,North,350,3.0,6.0,72,-99.99,,,-99.99,,2013-01-18 14:34:00,
2013-01-18 09:43:00,9.0,2.0,30.17,North,350,3.0,6.0,72,-99.99,,,-99.99,,2013-01-18 14:43:00,
2013-01-18 09:53:00,9.0,2.0,30.18,NW,320,4.0,7.0,72,-99.99,,,-99.99,,2013-01-18 14:53:00,
2013-01-18 10:03:00,10.0,3.0,30.18,NW,320,4.0,7.0,72,-99.99,,,-99.99,,2013-01-18 15:03:00,
2013-01-18 10:13:00,10.0,3.0,30.18,NW,320,4.0,7.0,72,-99.99,,,-99.99,,2013-01-18 15:13:00,
2013-01-18 10:23:00,11.0,4.0,30.17,NW,325,1.0,6.0,72,-99.99,,,-99.99,,2013-01-18 15:23:00,
2013-01-18 10:34:00,12.0,5.0,30.17,West,275,5.0,19.0,73,-99.99,,,-99.99,,2013-01-18 15:34:00,
2013-01-18 10:43:00,12.0,5.0,30.17,West,275,5.0,19.0,73,-99.99,,,-99.99,,2013-01-18 15:43:00,
2013-01-18 10:53:00,17.0,9.0,30.17,SSW,195,15.0,21.0,72,-99.99,,,-99.99,,2013-01-18 15:53:00,
2013-01-18 11:03:00,18.0,11.0,30.16,SSW,205,16.0,21.0,73,-99.99,,,-99.99,,2013-01-18 16:03:00,
2013-01-18 11:13:00,18.0,11.0,30.16,SSW,205,16.0,21.0,73,-99.99,,,-99.99,,2013-01-18 16:13:00,
2013-01-18 11:23:00,19.0,12.0,30.14,SSW,205,14.0,22.0,75,-99.99,,,-99.99,,2013-01-18 16:23:00,
2013-01-18 11:33:00,19.0,14.0,30.13,SSW,195,16.0,23.0,81,-99.99,,,-99.99,,2013-01-18 16:33:00,
2013-01-18 11:43:00,19.0,14.0,30.13,SSW,195,16.0,23.0,81,-99.99,,,-99.99,,2013-01-18 16:43:00,
2013-01-18 11:52:00,19.0,15.0,30.11,SSW,205,15.0,23.0,82,-99.99,,,-99.99,,2013-01-18 16:52:00,
2013-01-18 12:03:00,19.0,15.0,30.10,SSW,205,15.0,22.0,81,-99.99,,,-99.99,,2013-01-18 17:03:00,
2013-01-18 12:13:00,19.0,15.0,30.10,SSW,205,15.0,22.0,81,-99.99,,,-99.99,,2013-01-18 17:13:00,
2013-01-18 12:23:00,19.0,15.0,30.09,SSW,205,10.0,18.0,84,-99.99,,,-99.99,,2013-01-18 17:23:00,
2013-01-18 12:34:00,20.0,17.0,30.07,SSW,195,12.0,18.0,86,-99.99,,,-99.99,,2013-01-18 17:34:00,
2013-01-18 12:43:00,20.0,17.0,30.07,SSW,195,12.0,18.0,86,-99.99,,,-99.99,,2013-01-18 17:43:00,
2013-01-18 12:53:00,20.0,17.0,30.05,South,190,21.0,27.0,90,-99.99,,,-99.99,,2013-01-18 17:53:00,
2013-01-18 13:03:00,20.0,17.0,30.05,South,190,21.0,27.0,90,-99.99,,,-99.99,,2013-01-18 18:03:00,
2013-01-18 13:24:00,18.0,16.0,30.02,SSE,155,20.0,27.0,91,-99.99,,,-99.99,,2013-01-18 18:24:00,
2013-01-18 13:33:00,18.0,16.0,30.00,SSE,155,20.0,27.0,90,-99.99,,,-99.99,,2013-01-18 18:33:00,
2013-01-18 13:43:00,18.0,16.0,30.00,SSE,155,20.0,27.0,90,-99.99,,,-99.99,,2013-01-18 18:43:00,
2013-01-18 13:52:00,18.0,16.0,29.99,SE,145,24.0,30.0,91,-99.99,,,-99.99,,2013-01-18 18:52:00,
2013-01-18 14:03:00,18.0,16.0,29.98,SSE,150,20.0,29.0,92,-99.99,,,-99.99,,2013-01-18 19:03:00,
2013-01-18 14:13:00,18.0,16.0,29.98,SSE,150,20.0,29.0,92,-99.99,,,-99.99,,2013-01-18 19:13:00,
2013-01-18 14:23:00,18.0,16.0,29.98,SSE,155,18.0,26.0,92,-99.99,,,-99.99,,2013-01-18 19:23:00,
2013-01-18 14:33:00,18.0,16.0,29.97,SE,145,17.0,25.0,92,-99.99,,,-99.99,,2013-01-18 19:33:00,
2013-01-18 14:43:00,18.0,16.0,29.97,SE,145,17.0,25.0,92,-99.99,,,-99.99,,2013-01-18 19:43:00,
2013-01-18 14:52:00,18.0,17.0,29.96,SE,140,19.0,24.0,92,-99.99,,,-99.99,,2013-01-18 19:52:00,
2013-01-18 15:03:00,18.0,16.0,29.94,ESE,120,14.0,21.0,92,-99.99,,,-99.99,,2013-01-18 20:03:00,
2013-01-18 15:13:00,18.0,16.0,29.94,ESE,120,14.0,21.0,92,-99.99,,,-99.99,,2013-01-18 20:13:00,
2013-01-18 15:23:00,17.0,15.0,29.92,ESE,110,9.0,16.0,92,-99.99,,,-99.99,,2013-01-18 20:23:00,
2013-01-18 15:33:00,17.0,15.0,29.91,ESE,110,8.0,17.0,92,-99.99,,,-99.99,,2013-01-18 20:33:00,
2013-01-18 15:43:00,17.0,15.0,29.91,ESE,110,8.0,17.0,92,-99.99,,,-99.99,,2013-01-18 20:43:00,
2013-01-18 15:53:00,17.0,16.0,29.90,East,90,5.0,13.0,92,-99.99,,,-99.99,,2013-01-18 20:53:00,
2013-01-18 16:03:00,17.0,15.0,29.89,East,85,7.0,14.0,92,-99.99,,,-99.99,,2013-01-18 21:03:00,
2013-01-18 16:13:00,17.0,15.0,29.89,East,85,7.0,14.0,92,-99.99,,,-99.99,,2013-01-18 21:13:00,
2013-01-18 16:23:00,17.0,15.0,29.88,East,95,10.0,15.0,92,-99.99,,,-99.99,,2013-01-18 21:23:00,
2013-01-18 16:33:00,17.0,16.0,29.86,East,100,7.0,18.0,92,-99.99,,,-99.99,,2013-01-18 21:33:00,
2013-01-18 16:43:00,17.0,16.0,29.86,East,100,7.0,18.0,92,-99.99,,,-99.99,,2013-01-18 21:43:00,
2013-01-18 16:52:00,18.0,16.0,29.85,East,90,11.0,20.0,92,-99.99,,,-99.99,,2013-01-18 21:52:00,
2013-01-18 17:03:00,17.0,16.0,29.84,East,80,10.0,16.0,92,-99.99,,,-99.99,,2013-01-18 22:03:00,
2013-01-18 17:12:00,17.0,16.0,29.84,East,80,10.0,16.0,92,-99.99,,,-99.99,,2013-01-18 22:12:00,
2013-01-18 17:23:00,18.0,16.0,29.83,East,85,9.0,15.0,91,-99.99,,,-99.99,,2013-01-18 22:23:00,
2013-01-18 17:33:00,18.0,16.0,29.82,ESE,105,6.0,15.0,91,-99.99,,,-99.99,,2013-01-18 22:33:00,
2013-01-18 17:43:00,18.0,16.0,29.82,ESE,105,6.0,15.0,91,-99.99,,,-99.99,,2013-01-18 22:43:00,
2013-01-18 17:52:00,18.0,16.0,29.80,East,85,9.0,19.0,91,-99.99,,,-99.99,,2013-01-18 22:52:00,
2013-01-18 18:03:00,18.0,16.0,29.80,East,85,9.0,19.0,91,-99.99,,,-99.99,,2013-01-18 23:03:00,
2013-01-18 18:12:00,18.0,16.0,29.80,East,85,9.0,19.0,91,-99.99,,,-99.99,,2013-01-18 23:12:00,
2013-01-18 18:23:00,18.0,16.0,29.78,East,100,8.0,12.0,92,-99.99,,,-99.99,,2013-01-18 23:23:00,
2013-01-18 18:33:00,18.0,16.0,29.78,ESE,105,3.0,10.0,92,-99.99,,,-99.99,,2013-01-18 23:33:00,
2013-01-18 18:43:00,18.0,16.0,29.78,ESE,105,3.0,10.0,92,-99.99,,,-99.99,,2013-01-18 23:43:00,
2013-01-18 18:52:00,18.0,16.0,29.77,East,85,5.0,12.0,91,-99.99,,,-99.99,,2013-01-18 23:52:00,
2013-01-18 19:03:00,18.0,16.0,29.75,ENE,65,7.0,13.0,91,-99.99,,,-99.99,,2013-01-19 00:03:00,
2013-01-18 19:13:00,18.0,16.0,29.75,ENE,65,7.0,13.0,91,-99.99,,,-99.99,,2013-01-19 00:13:00,
2013-01-18 19:23:00,19.0,16.0,29.75,East,85,4.0,9.0,91,-99.99,,,-99.99,,2013-01-19 00:23:00,
2013-01-18 19:33:00,19.0,16.0,29.74,ENE,60,5.0,10.0,91,-99.99,,,-99.99,,2013-01-19 00:33:00,
2013-01-18 19:43:00,19.0,16.0,29.74,ENE,60,5.0,10.0,91,-99.99,,,-99.99,,2013-01-19 00:43:00,
2013-01-18 19:53:00,19.0,17.0,29.73,NNE,15,4.0,11.0,90,-99.99,,,-99.99,,2013-01-19 00:53:00,
2013-01-18 20:03:00,19.0,17.0,29.73,ENE,65,6.0,9.0,90,-99.99,,,-99.99,,2013-01-19 01:03:00,
2013-01-18 20:12:00,19.0,17.0,29.73,ENE,65,6.0,9.0,90,-99.99,,,-99.99,,2013-01-19 01:12:00,
2013-01-18 20:23:00,19.0,17.0,29.73,ENE,60,4.0,8.0,90,-99.99,,,-99.99,,2013-01-19 01:23:00,
2013-01-18 20:33:00,20.0,17.0,29.72,NNE,25,5.0,11.0,91,-99.99,,,-99.99,,2013-01-19 01:33:00,
2013-01-18 20:43:00,20.0,17.0,29.72,NNE,25,5.0,11.0,91,-99.99,,,-99.99,,2013-01-19 01:43:00,
2013-01-18 20:52:00,20.0,18.0,29.71,North,10,4.0,10.0,91,-99.99,,,-99.99,,2013-01-19 01:52:00,
2013-01-18 21:03:00,20.0,18.0,29.71,North,10,5.0,9.0,92,-99.99,,,-99.99,,2013-01-19 02:03:00,
2013-01-18 21:12:00,20.0,18.0,29.71,North,10,5.0,9.0,92,-99.99,,,-99.99,,2013-01-19 02:12:00,
2013-01-18 21:23:00,20.0,18.0,29.71,North,10,5.0,8.0,92,-99.99,,,-99.99,,2013-01-19 02:23:00,
2013-01-18 21:33:00,20.0,18.0,29.70,North,5,7.0,11.0,92,-99.99,,,-99.99,,2013-01-19 02:33:00,
2013-01-18 21:43:00,20.0,18.0,29.70,North,5,7.0,11.0,92,-99.99,,,-99.99,,2013-01-19 02:43:00,
2013-01-18 21:53:00,20.0,19.0,29.69,North,5,5.0,9.0,93,-99.99,,,-99.99,,2013-01-19 02:53:00,
2013-01-18 22:03:00,21.0,19.0,29.70,North,10,6.0,9.0,93,-99.99,,,-99.99,,2013-01-19 03:03:00,
2013-01-18 22:12:00,21.0,19.0,29.70,North,10,6.0,9.0,93,-99.99,,,-99.99,,2013-01-19 03:12:00,
2013-01-18 22:23:00,21.0,19.0,29.70,North,355,5.0,11.0,93,-99.99,,,-99.99,,2013-01-19 03:23:00,
2013-01-18 22:33:00,21.0,19.0,29.69,North,5,4.0,9.0,93,-99.99,,,-99.99,,2013-01-19 03:33:00,
2013-01-18 22:43:00,21.0,19.0,29.69,North,5,4.0,9.0,93,-99.99,,,-99.99,,2013-01-19 03:43:00,
2013-01-18 22:52:00,21.0,19.0,29.69,North,5,4.0,9.0,93,-99.99,,,-99.99,,2013-01-19 03:52:00,
2013-01-18 23:02:00,21.0,19.0,29.68,NNE,20,2.0,6.0,93,-99.99,,,-99.99,,2013-01-19 04:02:00,
2013-01-18 23:12:00,21.0,19.0,29.68,NNE,20,2.0,6.0,93,-99.99,,,-99.99,,2013-01-19 04:12:00,
2013-01-18 23:22:00,21.0,20.0,29.67,North,0,4.0,6.0,93,-99.99,,,-99.99,,2013-01-19 04:22:00,
2013-01-18 23:33:00,21.0,20.0,29.67,NE,55,1.0,4.0,93,-99.99,,,-99.99,,2013-01-19 04:33:00,
2013-01-18 23:42:00,21.0,20.0,29.67,NE,55,1.0,4.0,93,-99.99,,,-99.99,,2013-01-19 04:42:00,
2013-01-18 23:52:00,21.0,20.0,29.67,North,0,2.0,4.0,93,-99.99,,,-99.99,,2013-01-19 04:52:00,